createdAt,value
2023-04-09T00:01:27.184Z,39.90
2023-04-09T00:06:31.219Z,45.30
2023-04-09T00:11:35.675Z,50.00
2023-04-09T00:16:40.037Z,45.80
2023-04-09T00:21:43.718Z,52.00
2023-04-09T00:26:47.386Z,48.20
2023-04-09T00:31:50.963Z,47.40
2023-04-09T00:36:54.540Z,52.40
2023-04-09T00:41:58.889Z,53.80
2023-04-09T00:47:02.612Z,47.80
2023-04-09T00:52:07.360Z,45.50
2023-04-09T00:57:11.893Z,50.70
2023-04-09T01:02:15.730Z,39.30
2023-04-09T01:07:37.308Z,49.30
2023-04-09T01:12:48.105Z,42.70
2023-04-09T01:17:57.350Z,48.70
2023-04-09T01:23:11.168Z,55.80
2023-04-09T01:28:20.838Z,49.60
2023-04-09T01:33:26.937Z,39.30
2023-04-09T01:38:30.446Z,46.50
2023-04-09T01:43:36.752Z,45.30
2023-04-09T01:48:40.639Z,42.80
2023-04-09T01:53:44.200Z,48.60
2023-04-09T01:58:47.705Z,41.00
2023-04-09T02:03:56.661Z,47.80
2023-04-09T02:09:03.457Z,47.30
2023-04-09T02:14:08.290Z,40.40
2023-04-09T02:19:11.819Z,42.30
2023-04-09T02:24:15.366Z,39.30
2023-04-09T02:29:18.953Z,48.70
2023-04-09T02:34:22.508Z,40.10
2023-04-09T02:39:26.666Z,45.00
2023-04-09T02:44:30.240Z,44.90
2023-04-09T02:49:34.010Z,48.50
2023-04-09T02:54:37.587Z,51.50
2023-04-09T02:59:41.114Z,47.70
2023-04-09T03:04:44.835Z,61.40
2023-04-09T03:09:48.295Z,53.20
2023-04-09T03:14:51.805Z,53.10
2023-04-09T03:19:55.595Z,48.50
2023-04-09T03:24:59.234Z,51.90
2023-04-09T03:30:03.338Z,56.90
2023-04-09T03:35:13.655Z,55.40
2023-04-09T03:40:18.366Z,57.30
2023-04-09T03:45:22.021Z,57.30
2023-04-09T03:50:27.238Z,56.20
2023-04-09T03:55:32.110Z,51.70
2023-04-09T04:00:38.656Z,48.00
2023-04-09T04:06:04.527Z,47.00
2023-04-09T04:11:17.433Z,41.70
2023-04-09T04:16:22.080Z,49.60
2023-04-09T04:21:26.756Z,57.90
2023-04-09T04:26:36.981Z,50.50
2023-04-09T04:31:40.698Z,49.50
2023-04-09T04:36:44.369Z,50.00
2023-04-09T04:41:48.023Z,44.50
2023-04-09T04:46:56.688Z,45.70
2023-04-09T04:52:00.431Z,43.70
2023-04-09T04:57:04.712Z,48.70
2023-04-09T05:02:11.391Z,53.60
2023-04-09T05:07:46.463Z,56.80
2023-04-09T05:12:51.439Z,60.00
2023-04-09T05:18:04.241Z,54.70
2023-04-09T05:23:09.647Z,52.20
2023-04-09T05:28:17.437Z,49.50
2023-04-09T05:33:21.588Z,48.80
2023-04-09T05:38:25.511Z,48.00
2023-04-09T05:43:32.882Z,49.40
2023-04-09T05:48:36.844Z,52.70
2023-04-09T05:53:40.740Z,62.10
2023-04-09T05:58:44.470Z,58.60
2023-04-09T06:03:48.406Z,52.10
2023-04-09T06:08:52.134Z,49.50
2023-04-09T06:13:55.898Z,49.80
2023-04-09T06:18:59.675Z,49.90
2023-04-09T06:24:03.442Z,51.50
2023-04-09T06:29:07.298Z,45.70
2023-04-09T06:34:10.980Z,42.60
2023-04-09T06:39:14.498Z,46.50
2023-04-09T06:44:19.370Z,50.10
2023-04-09T06:49:22.922Z,41.10
2023-04-09T06:54:26.662Z,44.20
2023-04-09T06:59:30.376Z,38.40
2023-04-09T07:04:34.049Z,39.60
2023-04-09T07:09:37.729Z,43.90
2023-04-09T07:14:41.327Z,40.00
2023-04-09T07:19:45.050Z,41.20
2023-04-09T07:24:52.979Z,38.20
2023-04-09T07:29:57.833Z,35.00
2023-04-09T07:35:01.837Z,32.50
2023-04-09T07:40:07.908Z,27.00
2023-04-09T07:45:11.753Z,30.70
2023-04-09T07:50:15.720Z,28.40
2023-04-09T07:55:19.705Z,27.80
2023-04-09T08:00:23.640Z,27.50
2023-04-09T08:05:27.901Z,24.70
2023-04-09T08:10:31.471Z,31.60
2023-04-09T08:15:35.022Z,31.00
2023-04-09T08:20:44.231Z,21.70
2023-04-09T08:25:49.668Z,21.80
2023-04-09T08:30:53.855Z,22.90
2023-04-09T08:35:57.439Z,26.30
2023-04-09T08:41:00.926Z,26.00
2023-04-09T08:46:04.617Z,24.30
2023-04-09T08:51:08.674Z,24.90
2023-04-09T08:56:13.581Z,22.80
2023-04-09T09:01:20.911Z,22.00
2023-04-09T09:06:26.624Z,26.30
2023-04-09T09:11:30.523Z,27.10
2023-04-09T09:16:35.077Z,24.20
2023-04-09T09:21:41.264Z,20.20
2023-04-09T09:26:44.772Z,22.00
2023-04-09T09:31:49.496Z,25.70
2023-04-09T09:36:53.179Z,21.30
2023-04-09T09:42:08.800Z,24.10
2023-04-09T09:47:14.242Z,20.30
2023-04-09T09:52:24.576Z,19.90
2023-04-09T09:57:30.522Z,19.40
2023-04-09T10:02:43.528Z,21.70
2023-04-09T10:07:49.022Z,20.10
2023-04-09T10:12:52.784Z,15.10
2023-04-09T10:17:57.452Z,17.00
2023-04-09T10:23:09.495Z,23.80
2023-04-09T10:28:18.201Z,17.10
2023-04-09T10:33:26.314Z,22.00
2023-04-09T10:38:37.820Z,18.30
2023-04-09T10:43:41.637Z,17.60
2023-04-09T10:48:46.385Z,18.80
2023-04-09T10:53:53.697Z,18.80
2023-04-09T10:58:57.265Z,20.80
2023-04-09T11:04:20.561Z,16.00
2023-04-09T11:09:24.213Z,15.00
2023-04-09T11:14:27.882Z,15.90
2023-04-09T11:19:34.270Z,16.90
2023-04-09T11:24:46.030Z,19.70
2023-04-09T11:29:54.978Z,22.50
2023-04-09T11:34:58.625Z,24.90
2023-04-09T11:40:02.431Z,22.40
2023-04-09T11:45:08.387Z,22.20
2023-04-09T11:50:13.296Z,22.70
2023-04-09T11:55:25.409Z,21.90
2023-04-09T12:00:29.738Z,22.30
2023-04-09T12:05:35.053Z,24.00
2023-04-09T12:10:39.579Z,23.50
2023-04-09T12:15:43.347Z,21.30
2023-04-09T12:20:49.104Z,21.70
2023-04-09T12:25:54.813Z,25.20
2023-04-09T12:30:59.977Z,29.00
2023-04-09T12:36:03.705Z,27.10
2023-04-09T12:41:07.475Z,33.20
2023-04-09T12:46:11.326Z,27.00
2023-04-09T12:51:15.408Z,24.20
2023-04-09T12:56:19.176Z,28.60
2023-04-09T13:01:22.892Z,27.00
2023-04-09T13:06:26.855Z,29.10
2023-04-09T13:11:30.509Z,24.90
2023-04-09T13:16:34.234Z,33.60
2023-04-09T13:21:37.911Z,24.80
2023-04-09T13:26:41.833Z,40.30
2023-04-09T13:31:45.555Z,33.80
2023-04-09T13:36:49.238Z,38.80
2023-04-09T13:41:54.668Z,30.70
2023-04-09T13:46:58.341Z,33.60
2023-04-09T13:52:03.946Z,33.60
2023-04-09T13:57:07.572Z,34.50
2023-04-09T14:02:11.479Z,37.40
2023-04-09T14:07:15.154Z,45.30
2023-04-09T14:12:18.777Z,36.70
2023-04-09T14:17:22.465Z,48.70
2023-04-09T14:22:28.543Z,38.80
2023-04-09T14:27:32.646Z,40.10
2023-04-09T14:32:36.368Z,42.40
2023-04-09T14:37:40.536Z,36.90
2023-04-09T14:42:45.364Z,46.00
2023-04-09T14:47:49.078Z,34.10
2023-04-09T14:52:52.759Z,33.80
2023-04-09T14:57:56.343Z,34.80
2023-04-09T15:03:00.279Z,29.90
2023-04-09T15:08:05.077Z,36.00
2023-04-09T15:13:08.741Z,35.90
2023-04-09T15:18:12.285Z,35.30
2023-04-09T15:23:15.804Z,31.20
2023-04-09T15:28:19.537Z,38.40
2023-04-09T15:33:23.282Z,28.10
2023-04-09T15:38:26.942Z,33.60
2023-04-09T15:43:31.077Z,32.60
2023-04-09T15:48:34.790Z,30.10
2023-04-09T15:53:38.395Z,30.90
2023-04-09T15:58:42.768Z,30.70
2023-04-09T16:03:51.312Z,28.30
2023-04-09T16:08:55.217Z,28.10
2023-04-09T16:13:59.128Z,23.70
2023-04-09T16:19:02.698Z,35.30
2023-04-09T16:24:06.775Z,34.40
2023-04-09T16:29:10.598Z,25.90
2023-04-09T16:34:14.216Z,33.50
2023-04-09T16:39:19.302Z,30.60
2023-04-09T16:44:23.134Z,27.00
2023-04-09T16:49:26.911Z,30.10
2023-04-09T16:54:30.717Z,25.20
2023-04-09T16:59:34.291Z,27.70
2023-04-09T17:04:38.271Z,25.30
2023-04-09T17:09:42.230Z,25.70
2023-04-09T17:14:45.809Z,28.00
2023-04-09T17:19:49.491Z,32.60
2023-04-09T17:24:53.261Z,44.50
2023-04-09T17:29:57.017Z,37.80
2023-04-09T17:35:02.969Z,26.50
2023-04-09T17:40:11.784Z,32.00
2023-04-09T17:45:15.630Z,39.30
2023-04-09T17:50:19.646Z,36.70
2023-04-09T17:55:23.506Z,42.80
2023-04-09T18:00:27.468Z,37.70
2023-04-09T18:05:31.413Z,37.80
2023-04-09T18:10:35.625Z,32.60
2023-04-09T18:15:39.445Z,38.90
2023-04-09T18:20:43.138Z,33.20
2023-04-09T18:25:49.585Z,33.20
2023-04-09T18:30:53.735Z,38.50
2023-04-09T18:36:00.727Z,36.10
2023-04-09T18:41:04.933Z,47.70
2023-04-09T18:46:08.639Z,27.30
2023-04-09T18:51:12.361Z,32.90
2023-04-09T18:56:16.021Z,27.40
2023-04-09T19:01:19.710Z,36.00
2023-04-09T19:06:24.925Z,32.30
2023-04-09T19:11:28.599Z,34.60
2023-04-09T19:16:32.267Z,35.10
2023-04-09T19:21:36.113Z,33.80
2023-04-09T19:26:39.621Z,37.30
2023-04-09T19:31:43.428Z,48.30
2023-04-09T19:36:47.096Z,35.90
2023-04-09T19:41:50.788Z,30.70
2023-04-09T19:46:54.506Z,30.60
2023-04-09T19:51:58.071Z,21.00
2023-04-09T19:57:02.853Z,26.30
2023-04-09T20:02:06.963Z,22.60
2023-04-09T20:07:10.638Z,18.40
2023-04-09T20:12:14.297Z,28.60
2023-04-09T20:17:19.376Z,23.20
2023-04-09T20:22:23.418Z,20.80
2023-04-09T20:27:27.800Z,25.30
2023-04-09T20:32:31.815Z,24.50
2023-04-09T20:37:35.774Z,17.60
2023-04-09T20:42:41.728Z,24.00
2023-04-09T20:47:45.419Z,16.10
2023-04-09T20:52:49.478Z,16.30
2023-04-09T20:57:54.728Z,20.30
2023-04-09T21:02:59.297Z,20.20
2023-04-09T21:08:03.104Z,20.20
2023-04-09T21:13:06.901Z,20.00
2023-04-09T21:18:10.438Z,19.00
2023-04-09T21:23:14.345Z,20.10
2023-04-09T21:28:18.020Z,12.20
2023-04-09T21:33:21.694Z,13.10
2023-04-09T21:38:25.426Z,13.40
2023-04-09T21:43:29.646Z,31.50
2023-04-09T21:48:33.315Z,13.60
2023-04-09T21:53:36.881Z,12.10
2023-04-09T21:58:40.526Z,12.30
2023-04-09T22:03:44.234Z,10.50
2023-04-09T22:08:55.713Z,14.00
2023-04-09T22:14:00.204Z,17.70
2023-04-09T22:19:03.886Z,12.20
2023-04-09T22:24:07.648Z,15.30
2023-04-09T22:29:11.134Z,10.70
2023-04-09T22:34:21.525Z,12.10
2023-04-09T22:39:26.205Z,14.10
2023-04-09T22:44:29.962Z,9.80
2023-04-09T22:49:33.688Z,11.30
2023-04-09T22:54:37.929Z,7.90
2023-04-09T22:59:41.554Z,14.30
2023-04-09T23:04:45.164Z,14.70
2023-04-09T23:09:48.996Z,14.20
2023-04-09T23:14:53.279Z,13.30
2023-04-09T23:19:57.000Z,14.10
2023-04-09T23:25:00.532Z,13.40
2023-04-09T23:30:05.913Z,14.30
2023-04-09T23:35:11.036Z,9.60
2023-04-09T23:40:17.350Z,18.50
2023-04-09T23:45:23.084Z,14.40
2023-04-09T23:50:28.134Z,14.90
2023-04-09T23:55:32.804Z,11.90
